Time;durP1;ratioP1;P1;durP2;ratioP2;P2;SDS_P1;SDS_P2;PMS_P1;PMS_P2;Temp;Humidity;BMP_temperature;BMP_pressure;BME280_temperature;BME280_humidity;BME280_pressure;Samples;Min_cycle;Max_cycle;Signal;HPM_P1;HPM_P2
2023/08/03 00:01:09;;;;;;;8.00;5.28;;;;;;;21.86;73.84;94134.59;5077302;28;20202;-74
2023/08/03 00:03:36;;;;;;;7.78;6.95;;;;;;;21.84;72.91;94143.28;5069943;28;20569;-74
2023/08/03 00:06:04;;;;;;;9.32;6.28;;;;;;;21.85;71.58;94138.53;5069749;28;20199;-75
2023/08/03 00:08:31;;;;;;;7.97;5.30;;;;;;;21.85;72.18;94144.84;5069876;28;20568;-75
2023/08/03 00:11:00;;;;;;;8.27;5.07;;;;;;;21.82;72.62;94144.88;5068881;28;20548;-75
2023/08/03 00:13:27;;;;;;;8.70;6.07;;;;;;;21.80;72.88;94141.75;5068470;28;20203;-75
2023/08/03 00:15:54;;;;;;;9.13;6.53;;;;;;;21.79;73.52;94134.66;5069516;28;20245;-75
2023/08/03 00:18:20;;;;;;;9.20;7.10;;;;;;;21.76;73.63;94136.25;5071116;28;20257;-74
2023/08/03 00:20:48;;;;;;;6.82;4.78;;;;;;;21.71;72.32;94133.97;5069002;28;20209;-74
2023/08/03 00:23:16;;;;;;;10.63;5.82;;;;;;;21.73;72.54;94141.84;5069293;28;20493;-74
2023/08/03 00:25:43;;;;;;;9.88;5.70;;;;;;;21.75;74.43;94140.22;5069583;28;20230;-74
2023/08/03 00:28:09;;;;;;;7.38;5.63;;;;;;;21.70;75.82;94137.91;5069281;28;20624;-73
2023/08/03 00:30:36;;;;;;;11.73;7.10;;;;;;;21.51;76.65;94130.22;5069137;28;20669;-73
2023/08/03 00:33:03;;;;;;;14.85;5.75;;;;;;;21.40;76.28;94137.81;5068670;28;20238;-73
2023/08/03 00:35:30;;;;;;;11.88;5.93;;;;;;;21.34;75.76;94131.97;5069391;28;20214;-73
2023/08/03 00:37:57;;;;;;;7.03;5.25;;;;;;;21.32;75.34;94137.09;5069169;28;20199;-73
2023/08/03 00:40:25;;;;;;;9.02;6.45;;;;;;;21.36;76.17;94140.59;5069458;28;20218;-73
2023/08/03 00:42:51;;;;;;;9.45;5.90;;;;;;;21.35;76.68;94138.25;5068563;28;20203;-75
2023/08/03 00:45:18;;;;;;;10.25;5.88;;;;;;;21.33;75.98;94135.13;5068775;28;20542;-72
2023/08/03 00:47:45;;;;;;;7.70;5.68;;;;;;;21.34;75.86;94136.69;5069019;28;20194;-73
2023/08/03 00:50:12;;;;;;;8.27;5.85;;;;;;;21.33;74.12;94132.38;5068654;28;20320;-75
2023/08/03 00:52:39;;;;;;;10.73;7.15;;;;;;;21.31;74.86;94137.53;5069387;28;20480;-74
2023/08/03 00:55:06;;;;;;;8.68;5.55;;;;;;;21.28;74.61;94137.16;5068314;28;20202;-74
2023/08/03 00:57:34;;;;;;;7.13;6.13;;;;;;;21.27;75.28;94127.31;5068226;28;20661;-74
2023/08/03 01:00:01;;;;;;;6.53;5.20;;;;;;;21.26;74.83;94136.78;5073732;28;20275;-74
2023/08/03 01:02:28;;;;;;;9.00;5.85;;;;;;;21.24;73.01;94127.34;5070877;28;20219;-74
2023/08/03 01:04:55;;;;;;;8.98;6.00;;;;;;;21.23;75.29;94137.59;5068844;28;20199;-74
2023/08/03 01:07:22;;;;;;;8.30;5.93;;;;;;;21.26;76.15;94127.72;5068323;28;20568;-74
2023/08/03 01:09:49;;;;;;;8.80;5.97;;;;;;;21.24;74.86;94127.34;5068887;28;20322;-74
2023/08/03 01:12:17;;;;;;;10.30;6.03;;;;;;;21.25;74.75;94135.22;5068997;28;20202;-74
2023/08/03 01:14:45;;;;;;;9.90;6.25;;;;;;;21.22;75.51;94135.22;5068385;28;20252;-75
2023/08/03 01:17:12;;;;;;;9.27;7.07;;;;;;;21.15;76.11;94125.03;5066717;28;20518;-74
2023/08/03 01:19:39;;;;;;;8.13;6.28;;;;;;;21.20;76.68;94132.09;5068100;28;20203;-75
2023/08/03 01:22:09;;;;;;;8.52;5.78;;;;;;;21.24;77.04;94133.63;5068130;28;20203;-74
2023/08/03 01:24:37;;;;;;;8.93;6.20;;;;;;;21.15;76.85;94136.06;5068653;28;20616;-75
2023/08/03 01:27:04;;;;;;;9.13;6.15;;;;;;;21.07;77.21;94140.03;5068256;28;20313;-74
2023/08/03 01:29:31;;;;;;;11.15;7.15;;;;;;;21.07;77.08;94131.78;5068617;28;20299;-75
2023/08/03 01:31:59;;;;;;;10.40;6.40;;;;;;;20.98;78.12;94139.75;5068324;28;20223;-74
2023/08/03 01:34:27;;;;;;;10.20;6.57;;;;;;;20.99;77.04;94141.31;5068719;28;20230;-75
2023/08/03 01:36:55;;;;;;;9.60;7.03;;;;;;;20.99;75.52;94137.78;5055261;28;20206;-74
2023/08/03 01:39:26;;;;;;;10.57;5.82;;;;;;;21.05;73.87;94131.41;5068775;28;20206;-74
2023/08/03 01:41:54;;;;;;;9.60;6.03;;;;;;;21.19;75.43;94127.78;5068476;28;20210;-75
2023/08/03 01:44:26;;;;;;;9.18;6.95;;;;;;;21.04;75.55;94134.59;5068587;28;20203;-75
2023/08/03 01:46:54;;;;;;;7.43;5.97;;;;;;;21.00;75.86;94137.38;5068370;28;20833;-75
2023/08/03 01:49:22;;;;;;;9.15;5.80;;;;;;;20.90;76.44;94141.00;5068323;28;20226;-75
2023/08/03 01:51:50;;;;;;;7.78;5.82;;;;;;;20.85;75.66;94138.66;5068440;28;20745;-75
2023/08/03 01:54:17;;;;;;;6.88;5.47;;;;;;;20.82;76.00;94144.97;5068207;28;20701;-74
2023/08/03 01:56:44;;;;;;;7.53;5.35;;;;;;;20.77;75.90;94134.41;5068084;28;20203;-74
2023/08/03 01:59:13;;;;;;;8.40;6.68;;;;;;;20.74;76.81;94148.97;5052065;28;20279;-75
2023/08/03 02:01:40;;;;;;;8.20;6.32;;;;;;;20.65;76.82;94152.16;5068248;28;20284;-74
2023/08/03 02:04:07;;;;;;;9.35;5.70;;;;;;;20.55;76.92;94153.00;5074530;28;20211;-74
2023/08/03 02:06:35;;;;;;;8.98;5.90;;;;;;;20.62;77.28;94144.72;5068199;28;20195;-74
2023/08/03 02:09:02;;;;;;;7.97;6.18;;;;;;;20.74;76.46;94146.22;5068341;28;20207;-75
2023/08/03 02:11:29;;;;;;;9.15;6.15;;;;;;;20.75;77.69;94142.28;5068255;28;20199;-75
2023/08/03 02:13:56;;;;;;;9.85;6.95;;;;;;;20.71;77.11;94147.03;5071381;28;20229;-75
2023/08/03 02:16:24;;;;;;;10.85;6.85;;;;;;;20.60;77.86;94143.56;5071521;28;20256;-75
2023/08/03 02:18:51;;;;;;;7.35;5.70;;;;;;;20.50;77.77;94145.97;5073354;28;20199;-75
2023/08/03 02:21:17;;;;;;;8.88;6.13;;;;;;;20.54;77.47;94135.72;5079413;28;20534;-75
2023/08/03 02:23:44;;;;;;;7.82;6.32;;;;;;;20.56;78.20;94144.34;5071580;28;20233;-75
2023/08/03 02:26:11;;;;;;;8.00;6.20;;;;;;;20.59;75.51;94148.28;5071477;28;20195;-75
2023/08/03 02:28:38;;;;;;;13.30;6.40;;;;;;;20.61;75.83;94145.13;5071902;28;20191;-74
2023/08/03 02:31:05;;;;;;;11.75;6.70;;;;;;;20.55;77.05;94142.78;5071509;28;20227;-74
2023/08/03 02:33:33;;;;;;;8.25;6.28;;;;;;;20.55;77.84;94155.78;5071621;28;20223;-74
2023/08/03 02:36:00;;;;;;;12.23;7.32;;;;;;;20.48;79.04;94148.34;5071727;28;20199;-74
2023/08/03 02:38:27;;;;;;;10.02;8.20;;;;;;;20.45;79.11;94154.66;5078372;28;20211;-74
2023/08/03 02:40:57;;;;;;;11.23;7.15;;;;;;;20.36;79.12;94157.06;5073457;28;20203;-74
2023/08/03 02:43:26;;;;;;;9.48;6.82;;;;;;;20.35;79.13;94158.22;5071350;28;20273;-74
2023/08/03 02:45:52;;;;;;;8.73;6.45;;;;;;;20.36;79.06;94157.06;5074356;28;20198;-74
2023/08/03 02:48:19;;;;;;;9.40;6.07;;;;;;;20.39;78.59;94150.75;5071369;28;20304;-74
2023/08/03 02:50:47;;;;;;;11.38;6.13;;;;;;;20.31;79.02;94154.69;5071159;28;20576;-74
2023/08/03 02:53:14;;;;;;;9.35;6.32;;;;;;;20.35;78.92;94160.97;5071576;28;20285;-74
2023/08/03 02:55:41;;;;;;;9.68;6.68;;;;;;;20.31;79.39;94151.94;5073057;28;20602;-74
2023/08/03 02:58:07;;;;;;;11.73;6.25;;;;;;;20.32;80.61;94150.78;5082953;28;20199;-74
2023/08/03 03:00:34;;;;;;;8.55;6.53;;;;;;;20.17;81.68;94154.78;5079268;28;20194;-75
2023/08/03 03:03:16;;;;;;;10.57;6.47;;;;;;;20.13;80.61;94148.50;5071221;28;20356;-74
2023/08/03 03:05:47;;;;;;;8.90;6.45;;;;;;;20.20;79.88;94164.97;5068791;28;20219;-74
2023/08/03 03:08:13;;;;;;;9.07;6.20;;;;;;;20.20;80.32;94163.00;5071296;28;20195;-74
2023/08/03 03:10:40;;;;;;;10.40;6.68;;;;;;;20.18;81.05;94161.84;5084301;28;20288;-74
2023/08/03 03:13:07;;;;;;;10.05;6.80;;;;;;;20.22;79.79;94168.13;5070903;28;20214;-74
2023/08/03 03:15:34;;;;;;;9.23;6.57;;;;;;;20.22;79.65;94162.63;5071255;28;20203;-73
2023/08/03 03:18:00;;;;;;;8.00;6.03;;;;;;;20.25;80.49;94167.28;5070897;28;20210;-75
2023/08/03 03:20:27;;;;;;;10.50;7.03;;;;;;;20.23;80.55;94180.66;5071047;28;20207;-73
2023/08/03 03:22:55;;;;;;;10.88;7.32;;;;;;;20.17;80.59;94161.06;5070828;28;20226;-73
2023/08/03 03:25:22;;;;;;;12.70;6.85;;;;;;;20.32;80.07;94178.28;5070678;28;20219;-74
2023/08/03 03:27:49;;;;;;;8.27;6.85;;;;;;;20.33;80.12;94184.56;5070387;28;20203;-74
2023/08/03 03:30:17;;;;;;;10.20;7.22;;;;;;;20.37;80.25;94186.13;5070524;28;20285;-74
2023/08/03 03:32:43;;;;;;;13.07;7.70;;;;;;;20.60;80.19;94177.38;5070297;28;20239;-75
2023/08/03 03:35:10;;;;;;;13.23;8.00;;;;;;;20.88;79.55;94171.69;5070726;28;20279;-74
2023/08/03 03:37:37;;;;;;;13.02;7.03;;;;;;;21.24;78.38;94177.72;5070405;28;20203;-74
2023/08/03 03:40:07;;;;;;;10.55;7.18;;;;;;;21.65;77.41;94185.22;5070642;28;20198;-76
2023/08/03 03:42:33;;;;;;;13.50;7.35;;;;;;;22.14;75.56;94174.88;5083558;28;20213;-73
2023/08/03 03:45:00;;;;;;;8.55;6.85;;;;;;;22.61;73.16;94165.59;5083543;28;20237;-74
2023/08/03 03:47:27;;;;;;;13.20;7.35;;;;;;;22.91;72.41;94166.78;5072607;28;20234;-74
2023/08/03 03:49:54;;;;;;;9.10;7.47;;;;;;;23.54;70.23;94167.75;5069777;28;20226;-74
2023/08/03 03:52:20;;;;;;;17.15;7.20;;;;;;;24.12;67.91;94173.00;5069863;28;20211;-73
2023/08/03 03:54:47;;;;;;;11.48;8.05;;;;;;;24.72;66.00;94167.03;5070088;28;20244;-73
2023/08/03 03:57:15;;;;;;;14.10;8.18;;;;;;;25.12;64.24;94173.28;5069796;28;20600;-74
2023/08/03 03:59:42;;;;;;;11.73;8.38;;;;;;;25.70;62.48;94173.44;5069863;28;20207;-74
2023/08/03 04:02:09;;;;;;;10.13;7.82;;;;;;;25.96;61.88;94168.81;5069753;28;20662;-74
2023/08/03 04:04:36;;;;;;;12.63;7.57;;;;;;;26.56;58.32;94166.34;5069959;28;20592;-75
2023/08/03 04:07:03;;;;;;;8.02;7.20;;;;;;;26.99;56.69;94171.44;5070084;28;20213;-75
2023/08/03 04:09:30;;;;;;;11.63;8.27;;;;;;;27.10;56.07;94171.09;5070098;28;20209;-76
2023/08/03 04:11:57;;;;;;;9.07;8.05;;;;;;;27.90;55.60;94163.31;5069686;28;20239;-75
2023/08/03 04:14:27;;;;;;;11.93;8.73;;;;;;;28.87;53.00;94167.78;5069741;28;20256;-75
2023/08/03 04:16:53;;;;;;;11.80;8.60;;;;;;;28.99;49.37;94169.72;5069871;28;20585;-76
2023/08/03 04:19:20;;;;;;;10.07;8.45;;;;;;;29.56;50.35;94166.69;5070272;28;20239;-76
2023/08/03 04:21:47;;;;;;;10.05;8.02;;;;;;;29.89;49.68;94164.13;5069211;28;20214;-75
2023/08/03 04:24:14;;;;;;;11.00;8.23;;;;;;;30.34;48.31;94178.13;5069033;28;20268;-76
2023/08/03 04:26:40;;;;;;;10.73;8.35;;;;;;;30.73;47.70;94170.06;5069787;28;20207;-76
2023/08/03 04:29:07;;;;;;;10.63;8.05;;;;;;;31.41;45.64;94164.91;5069837;28;20350;-77
2023/08/03 04:31:35;;;;;;;8.63;7.57;;;;;;;31.90;44.85;94169.31;5069550;28;20238;-77
2023/08/03 04:34:02;;;;;;;9.45;8.32;;;;;;;31.78;44.04;94169.09;5069479;28;20253;-77
2023/08/03 04:36:29;;;;;;;9.88;8.88;;;;;;;31.73;44.62;94183.72;5069223;28;20207;-77
2023/08/03 04:38:55;;;;;;;13.35;9.50;;;;;;;31.83;44.31;94181.66;5069972;28;20219;-77
2023/08/03 04:41:22;;;;;;;10.90;8.55;;;;;;;32.52;43.70;94191.00;5069387;28;20980;-75
2023/08/03 04:43:49;;;;;;;11.85;8.55;;;;;;;32.82;42.80;94187.00;5069166;28;20225;-76
2023/08/03 04:46:16;;;;;;;11.27;9.38;;;;;;;33.11;41.73;94175.78;5071997;28;20203;-74
2023/08/03 04:48:44;;;;;;;12.63;9.13;;;;;;;32.72;42.11;94188.34;5069242;28;20227;-74
2023/08/03 04:51:11;;;;;;;12.05;8.82;;;;;;;32.79;42.16;94196.41;5068992;28;20226;-75
2023/08/03 04:53:37;;;;;;;10.65;9.57;;;;;;;33.99;40.18;94202.22;5069170;28;20237;-75
2023/08/03 04:56:05;;;;;;;13.52;9.35;;;;;;;33.74;40.14;94187.53;5069179;28;20215;-74
2023/08/03 04:58:32;;;;;;;10.32;9.25;;;;;;;33.87;40.30;94190.81;5069474;28;20288;-75
2023/08/03 05:00:59;;;;;;;11.30;9.80;;;;;;;34.07;39.72;94192.09;5076449;28;20223;-79
2023/08/03 05:03:25;;;;;;;11.98;9.02;;;;;;;34.67;38.52;94196.19;5069068;28;20732;-79
2023/08/03 05:05:53;;;;;;;12.32;8.48;;;;;;;34.78;38.18;94194.28;5069044;28;20206;-80
2023/08/03 05:08:22;;;;;;;13.70;9.40;;;;;;;34.92;38.28;94204.66;5069074;28;20282;-80
2023/08/03 05:10:49;;;;;;;11.52;9.45;;;;;;;35.49;36.70;94200.34;5068862;28;20230;-79
2023/08/03 05:13:17;;;;;;;13.45;9.85;;;;;;;35.72;36.64;94196.41;5068221;28;20203;-80
2023/08/03 05:15:44;;;;;;;12.73;9.80;;;;;;;35.78;36.39;94199.31;5069432;28;20202;-79
2023/08/03 05:18:13;;;;;;;11.13;9.93;;;;;;;34.85;37.27;94212.78;5068895;28;20199;-78
2023/08/03 05:20:40;;;;;;;12.32;9.68;;;;;;;34.64;37.84;94216.84;5069297;28;20202;-79
2023/08/03 05:23:11;;;;;;;12.57;9.15;;;;;;;34.79;37.66;94209.13;5068721;28;20211;-80
2023/08/03 05:25:38;;;;;;;9.98;8.95;;;;;;;34.24;38.50;94204.34;5068557;28;20195;-81
2023/08/03 05:28:10;;;;;;;12.80;9.95;;;;;;;34.49;37.86;94206.47;5067733;28;20829;-80
2023/08/03 05:30:37;;;;;;;10.98;9.88;;;;;;;36.12;35.87;94200.25;5067678;28;20699;-78
2023/08/03 05:33:10;;;;;;;10.93;9.43;;;;;;;35.56;36.08;94200.66;5065429;28;20322;-79
2023/08/03 05:35:38;;;;;;;13.38;10.25;;;;;;;35.23;36.42;94206.75;5068857;28;20191;-79
2023/08/03 05:38:12;;;;;;;12.00;10.02;;;;;;;36.32;34.75;94211.44;5067387;28;20207;-79
2023/08/03 05:40:44;;;;;;;11.68;9.57;;;;;;;36.50;34.83;94218.69;5068748;28;20274;-80
2023/08/03 05:43:16;;;;;;;14.20;10.10;;;;;;;36.45;34.74;94217.41;5068609;28;20217;-80
2023/08/03 05:45:53;;;;;;;13.70;10.48;;;;;;;36.83;34.02;94212.41;5071195;28;20293;-80
2023/08/03 05:48:20;;;;;;;11.75;9.90;;;;;;;36.71;34.73;94216.50;5052826;28;20231;-79
2023/08/03 05:50:55;;;;;;;13.88;9.40;;;;;;;36.48;35.17;94202.28;5067858;28;20222;-75
2023/08/03 05:53:22;;;;;;;11.20;9.98;;;;;;;37.32;33.95;94206.09;5073010;28;20194;-74
2023/08/03 05:55:50;;;;;;;13.52;10.45;;;;;;;36.07;35.46;94220.78;5072365;28;20536;-74
2023/08/03 05:58:18;;;;;;;10.88;9.70;;;;;;;37.19;33.45;94217.13;5071742;28;20195;-74
2023/08/03 06:00:53;;;;;;;13.23;9.45;;;;;;;37.62;33.41;94222.56;5079801;28;20713;-75
2023/08/03 06:03:21;;;;;;;10.27;9.13;;;;;;;37.75;32.93;94222.06;5072796;28;20202;-75
2023/08/03 06:05:50;;;;;;;11.82;10.38;;;;;;;36.21;34.84;94231.09;5072627;28;20203;-74
2023/08/03 06:08:20;;;;;;;11.15;9.27;;;;;;;36.13;35.83;94222.31;5072412;28;20275;-74
2023/08/03 06:10:48;;;;;;;11.80;10.18;;;;;;;34.13;38.32;94237.94;5072220;28;20211;-75
2023/08/03 06:13:18;;;;;;;14.55;9.88;;;;;;;35.33;37.12;94226.31;5072346;28;20284;-76
2023/08/03 06:15:47;;;;;;;10.00;8.73;;;;;;;34.51;37.57;94243.31;5071923;28;20207;-74
2023/08/03 06:18:20;;;;;;;9.80;8.80;;;;;;;35.22;36.54;94227.75;5085746;28;20292;-75
2023/08/03 06:20:52;;;;;;;13.18;8.85;;;;;;;35.54;36.69;94222.91;5072328;28;20195;-76
2023/08/03 06:23:21;;;;;;;11.63;9.23;;;;;;;36.41;34.93;94233.78;5072171;28;20280;-76
2023/08/03 06:25:49;;;;;;;9.32;8.00;;;;;;;37.32;33.69;94231.53;5071847;28;20206;-74
2023/08/03 06:28:20;;;;;;;10.98;9.07;;;;;;;35.55;35.87;94229.31;5072320;28;20564;-75
2023/08/03 06:30:48;;;;;;;9.95;8.80;;;;;;;35.47;36.88;94231.06;5072084;28;20284;-75
2023/08/03 06:33:17;;;;;;;9.93;8.85;;;;;;;36.29;35.08;94232.97;5084783;28;20312;-76
2023/08/03 06:35:47;;;;;;;9.90;8.52;;;;;;;35.50;35.84;94232.88;5072015;28;20214;-75
2023/08/03 06:38:16;;;;;;;10.68;8.65;;;;;;;36.37;34.80;94233.25;5072124;28;20225;-74
2023/08/03 06:40:44;;;;;;;10.65;9.50;;;;;;;35.65;35.80;94229.94;5071934;28;20732;-75
2023/08/03 06:43:12;;;;;;;11.43;9.20;;;;;;;36.77;33.82;94231.38;5071512;28;20203;-76
2023/08/03 06:45:42;;;;;;;9.52;8.63;;;;;;;37.72;32.93;94233.13;5074113;28;20210;-76
2023/08/03 06:48:10;;;;;;;9.95;8.50;;;;;;;37.26;33.22;94244.91;5057642;28;20226;-76
2023/08/03 06:50:38;;;;;;;9.98;8.93;;;;;;;35.96;35.51;94244.78;5071655;28;20239;-75
2023/08/03 06:53:06;;;;;;;10.02;8.52;;;;;;;36.64;34.65;94235.44;5071950;28;20198;-74
2023/08/03 06:55:33;;;;;;;9.38;8.43;;;;;;;35.06;36.31;94241.66;5082621;28;20206;-73
2023/08/03 06:58:00;;;;;;;9.75;8.75;;;;;;;35.57;35.48;94244.47;5069796;28;20286;-74
2023/08/03 07:00:27;;;;;;;10.70;8.90;;;;;;;36.17;35.21;94236.22;5071373;28;20627;-75
2023/08/03 07:02:55;;;;;;;14.35;8.93;;;;;;;36.91;33.85;94227.56;5069948;28;20229;-76
2023/08/03 07:05:22;;;;;;;10.00;8.63;;;;;;;37.32;33.39;94231.53;5070289;28;20195;-75
2023/08/03 07:07:49;;;;;;;9.75;8.40;;;;;;;36.44;34.52;94224.31;5071075;28;20206;-75
2023/08/03 07:10:16;;;;;;;9.98;8.98;;;;;;;36.20;35.68;94226.75;5071226;28;20203;-75
2023/08/03 07:12:43;;;;;;;10.30;8.95;;;;;;;35.91;35.77;94234.25;5071217;28;20223;-76
2023/08/03 07:15:10;;;;;;;10.13;8.98;;;;;;;35.78;35.59;94228.28;5071562;28;20275;-75
2023/08/03 07:17:37;;;;;;;10.00;8.98;;;;;;;36.10;35.07;94225.38;5071307;28;20688;-75
2023/08/03 07:20:08;;;;;;;10.10;8.90;;;;;;;35.70;35.31;94232.78;5074449;28;20206;-75
2023/08/03 07:22:35;;;;;;;11.65;9.27;;;;;;;36.55;34.75;94224.34;5081156;28;20262;-74
2023/08/03 07:25:01;;;;;;;10.35;9.23;;;;;;;35.75;35.51;94223.63;5071522;28;20607;-74
2023/08/03 07:27:28;;;;;;;10.70;9.32;;;;;;;37.03;33.44;94226.34;5070959;28;20198;-75
2023/08/03 07:29:55;;;;;;;14.73;9.68;;;;;;;37.09;34.37;94218.66;5071461;28;20211;-74
2023/08/03 07:32:22;;;;;;;10.80;9.70;;;;;;;36.92;34.05;94215.00;5070827;28;20636;-74
2023/08/03 07:34:48;;;;;;;12.73;9.05;;;;;;;36.70;34.83;94220.56;5071112;28;20685;-75
2023/08/03 07:37:17;;;;;;;10.50;9.30;;;;;;;36.17;35.33;94222.09;5071029;28;20268;-74
2023/08/03 07:39:43;;;;;;;10.30;9.27;;;;;;;35.57;36.16;94212.69;5070557;28;20198;-75
2023/08/03 07:42:10;;;;;;;10.80;9.70;;;;;;;36.00;35.51;94221.22;5070551;28;20673;-75
2023/08/03 07:44:37;;;;;;;10.70;8.73;;;;;;;35.94;35.75;94213.50;5070835;28;20207;-75
2023/08/03 07:47:04;;;;;;;10.10;8.93;;;;;;;36.39;35.91;94216.59;5072461;28;20230;-76
2023/08/03 07:49:30;;;;;;;12.07;9.88;;;;;;;35.10;36.72;94217.66;5070670;28;20233;-77
2023/08/03 07:51:57;;;;;;;12.40;10.18;;;;;;;35.16;36.80;94215.66;5069811;28;20226;-76
2023/08/03 07:54:25;;;;;;;11.32;9.27;;;;;;;35.42;36.63;94212.06;5070649;28;20252;-76
2023/08/03 07:56:52;;;;;;;12.55;9.95;;;;;;;36.25;35.31;94211.91;5070544;28;20206;-77
2023/08/03 07:59:19;;;;;;;12.45;9.27;;;;;;;35.58;36.48;94208.59;5070857;28;20195;-76
2023/08/03 08:01:46;;;;;;;11.00;9.27;;;;;;;35.55;36.72;94204.72;5090945;28;20271;-77
2023/08/03 08:04:14;;;;;;;10.38;8.63;;;;;;;35.92;35.57;94213.25;5072205;28;20292;-77
2023/08/03 08:06:40;;;;;;;13.70;9.43;;;;;;;35.52;36.23;94202.94;5070629;28;20203;-76
2023/08/03 08:09:07;;;;;;;12.23;9.07;;;;;;;34.89;37.60;94210.50;5070843;28;20199;-76
2023/08/03 08:11:38;;;;;;;10.35;9.23;;;;;;;34.73;37.89;94211.84;5069429;28;20231;-75
2023/08/03 08:14:05;;;;;;;10.70;9.52;;;;;;;34.62;37.80;94213.75;5070401;28;20699;-77
2023/08/03 08:16:32;;;;;;;12.25;9.85;;;;;;;34.82;38.04;94210.97;5070431;28;20244;-75
2023/08/03 08:18:58;;;;;;;11.88;9.65;;;;;;;35.40;36.91;94206.91;5070292;28;20230;-75
2023/08/03 08:21:25;;;;;;;10.75;9.65;;;;;;;35.44;36.87;94203.88;5070020;28;20211;-75
2023/08/03 08:23:52;;;;;;;11.40;9.63;;;;;;;34.42;37.88;94206.13;5070068;28;20219;-77
2023/08/03 08:26:19;;;;;;;11.68;9.52;;;;;;;34.28;39.24;94207.75;5070263;28;20207;-75
2023/08/03 08:28:48;;;;;;;11.30;10.10;;;;;;;34.41;38.09;94205.34;5070105;28;20202;-76
2023/08/03 08:31:15;;;;;;;11.77;9.23;;;;;;;34.09;38.97;94206.44;5069921;28;20195;-75
2023/08/03 08:33:42;;;;;;;12.23;9.68;;;;;;;32.63;40.78;94197.59;5056040;28;20226;-74
2023/08/03 08:36:09;;;;;;;12.75;9.32;;;;;;;33.07;39.53;94203.28;5069684;28;20213;-75
2023/08/03 08:38:36;;;;;;;11.80;9.77;;;;;;;33.88;38.11;94197.22;5069828;28;20256;-75
2023/08/03 08:41:03;;;;;;;11.88;9.55;;;;;;;33.70;38.52;94186.94;5069617;28;20195;-75
2023/08/03 08:43:30;;;;;;;15.48;10.75;;;;;;;33.07;39.90;94185.66;5076772;28;20259;-75
2023/08/03 08:45:58;;;;;;;13.25;10.10;;;;;;;33.28;39.42;94183.75;5072606;28;20246;-74
2023/08/03 08:48:25;;;;;;;13.55;10.25;;;;;;;32.94;40.20;94182.38;5068974;28;20846;-75
2023/08/03 08:50:52;;;;;;;10.88;9.60;;;;;;;33.83;39.89;94186.66;5069946;28;20207;-75
2023/08/03 08:53:19;;;;;;;12.05;10.00;;;;;;;33.05;39.88;94177.72;5069255;28;20825;-75
2023/08/03 08:55:46;;;;;;;14.18;9.90;;;;;;;32.66;40.44;94184.66;5069736;28;20210;-74
2023/08/03 08:58:13;;;;;;;11.77;10.18;;;;;;;32.97;40.29;94187.78;5068975;28;20551;-75
2023/08/03 09:00:44;;;;;;;12.23;10.10;;;;;;;33.40;39.06;94179.84;5069222;28;20227;-76
2023/08/03 09:03:13;;;;;;;14.13;10.15;;;;;;;33.44;39.54;94183.22;5068759;28;20195;-76
2023/08/03 09:05:40;;;;;;;12.23;9.90;;;;;;;33.31;39.95;94188.38;5069862;28;20507;-75
2023/08/03 09:08:08;;;;;;;13.65;9.98;;;;;;;34.01;38.63;94180.00;5069210;28;20210;-77
2023/08/03 09:10:48;;;;;;;15.63;10.18;;;;;;;33.50;39.31;94178.47;5069396;28;20272;-75
2023/08/03 09:13:26;;;;;;;14.00;10.35;;;;;;;33.75;39.13;94180.66;5069251;28;20215;-75
2023/08/03 09:15:53;;;;;;;13.52;10.52;;;;;;;34.14;38.44;94174.81;5069446;28;20195;-75
2023/08/03 09:18:22;;;;;;;13.18;10.60;;;;;;;33.58;40.02;94176.81;5069135;28;20256;-75
2023/08/03 09:20:49;;;;;;;13.15;10.75;;;;;;;33.51;40.46;94175.16;5069182;28;20939;-76
2023/08/03 09:23:31;;;;;;;15.52;10.77;;;;;;;33.38;40.16;94177.50;5068605;28;20230;-76
2023/08/03 09:25:58;;;;;;;15.25;10.57;;;;;;;33.88;39.53;94175.50;5069689;28;20198;-75
2023/08/03 09:28:36;;;;;;;14.27;11.20;;;;;;;34.33;39.25;94164.81;5068708;28;20236;-75
2023/08/03 09:31:03;;;;;;;15.68;11.55;;;;;;;34.42;38.58;94163.94;5069571;28;20673;-75
2023/08/03 09:33:32;;;;;;;12.77;10.80;;;;;;;34.33;39.10;94164.06;5068834;28;20338;-75
2023/08/03 09:36:07;;;;;;;14.55;10.70;;;;;;;34.61;39.15;94155.94;5068914;28;20586;-75
2023/08/03 09:38:34;;;;;;;13.90;11.13;;;;;;;33.68;40.36;94155.75;5056976;28;20206;-76
2023/08/03 09:41:01;;;;;;;12.68;10.77;;;;;;;33.52;41.01;94147.84;5068934;28;20207;-74
2023/08/03 09:43:29;;;;;;;15.90;10.98;;;;;;;33.73;40.67;94149.44;5069101;28;20541;-75
2023/08/03 09:45:57;;;;;;;12.88;10.95;;;;;;;34.48;40.26;94142.22;5072313;28;20250;-76
2023/08/03 09:48:25;;;;;;;14.88;10.85;;;;;;;34.64;39.36;94140.88;5068842;28;20662;-77
2023/08/03 09:50:54;;;;;;;12.18;10.20;;;;;;;33.89;39.64;94143.28;5069247;28;20214;-78
2023/08/03 09:53:23;;;;;;;12.15;10.63;;;;;;;33.12;41.16;94138.03;5069007;28;20254;-74
2023/08/03 09:55:58;;;;;;;14.38;11.18;;;;;;;32.72;41.93;94143.47;5069249;28;20238;-76
2023/08/03 09:58:29;;;;;;;11.85;10.07;;;;;;;33.36;41.23;94140.72;5069055;28;20186;-75
2023/08/03 10:00:59;;;;;;;11.00;9.80;;;;;;;33.72;40.93;94138.69;5076747;28;20258;-74
2023/08/03 10:03:29;;;;;;;12.35;10.23;;;;;;;33.35;41.12;94138.41;5066783;28;20243;-74
2023/08/03 10:06:05;;;;;;;14.05;11.45;;;;;;;33.06;41.88;94139.97;5068078;28;20199;-77
2023/08/03 10:08:34;;;;;;;13.18;10.50;;;;;;;32.90;42.10;94132.03;5068937;28;20194;-75
2023/08/03 10:11:03;;;;;;;14.45;11.35;;;;;;;32.90;42.77;94126.44;5068063;28;20203;-75
2023/08/03 10:13:34;;;;;;;13.20;11.27;;;;;;;32.86;42.56;94125.84;5066540;28;20315;-75
2023/08/03 10:16:02;;;;;;;12.48;10.10;;;;;;;33.27;42.09;94117.59;5068902;28;20199;-74
2023/08/03 10:18:32;;;;;;;12.20;10.63;;;;;;;33.19;42.02;94126.41;5068492;28;20207;-75
2023/08/03 10:21:01;;;;;;;12.60;10.75;;;;;;;33.66;41.73;94124.56;5068621;28;20214;-75
2023/08/03 10:23:28;;;;;;;11.45;10.32;;;;;;;33.64;41.15;94109.44;5068268;28;20268;-75
2023/08/03 10:25:56;;;;;;;12.63;11.30;;;;;;;33.82;40.56;94107.19;5068632;28;20286;-75
2023/08/03 10:28:24;;;;;;;16.30;11.75;;;;;;;33.85;40.55;94103.38;5063861;28;20565;-75
2023/08/03 10:31:12;;;;;;;13.25;10.75;;;;;;;33.50;41.29;94091.38;5062099;28;20636;-74
2023/08/03 10:34:12;;;;;;;11.32;10.23;;;;;;;33.71;41.31;94092.97;5068466;28;20604;-76
2023/08/03 10:36:53;;;;;;;11.25;10.15;;;;;;;34.08;40.59;94086.78;5071117;28;20260;-76
2023/08/03 10:39:59;;;;;;;13.07;10.45;;;;;;;34.55;40.33;94085.53;5070996;28;20199;-77
2023/08/03 10:42:32;;;;;;;12.35;9.40;;;;;;;34.57;38.86;94078.16;5070601;28;20673;-77
2023/08/03 10:45:28;;;;;;;11.60;10.10;;;;;;;35.10;38.67;94079.66;5070927;28;20229;-77
2023/08/03 10:48:01;;;;;;;10.70;9.55;;;;;;;35.49;37.34;94071.47;5065123;28;20206;-76
2023/08/03 10:50:57;;;;;;;10.70;9.43;;;;;;;35.31;38.14;94076.72;5068725;28;20195;-76
2023/08/03 10:53:25;;;;;;;10.90;9.15;;;;;;;35.08;37.93;94082.19;5069924;28;20571;-76
2023/08/03 10:56:04;;;;;;;11.18;9.40;;;;;;;34.23;39.00;94077.00;5069440;28;20252;-75
2023/08/03 10:58:31;;;;;;;11.30;10.07;;;;;;;34.27;39.43;94076.81;5068893;28;20223;-76
2023/08/03 11:00:57;;;;;;;11.77;9.85;;;;;;;34.04;39.18;94084.19;5068418;28;20665;-76
2023/08/03 11:03:36;;;;;;;10.93;9.82;;;;;;;33.62;39.45;94078.28;5067073;28;20659;-76
2023/08/03 11:06:04;;;;;;;10.77;9.68;;;;;;;33.78;39.66;94070.06;5066603;28;20253;-73
2023/08/03 11:08:36;;;;;;;11.25;10.05;;;;;;;33.58;39.29;94078.47;5067158;28;20661;-76
2023/08/03 11:11:02;;;;;;;11.00;9.88;;;;;;;34.10;38.83;94067.38;5068033;28;20198;-75
2023/08/03 11:13:29;;;;;;;10.23;9.25;;;;;;;34.54;38.95;94056.63;5064991;28;20226;-77
2023/08/03 11:15:56;;;;;;;9.57;8.68;;;;;;;34.85;37.60;94043.88;5067012;28;20252;-75
2023/08/03 11:18:23;;;;;;;11.88;9.35;;;;;;;35.10;37.84;94057.13;5065944;28;20214;-75
2023/08/03 11:20:51;;;;;;;11.07;9.38;;;;;;;35.48;36.05;94046.63;5066911;28;20234;-75
2023/08/03 11:23:18;;;;;;;9.73;8.73;;;;;;;35.43;35.17;94045.31;5066147;28;20249;-74
2023/08/03 11:25:46;;;;;;;9.60;8.10;;;;;;;35.07;35.52;94046.84;5068475;28;20203;-75
2023/08/03 11:28:18;;;;;;;9.32;8.35;;;;;;;35.48;34.69;94052.25;5068594;28;20207;-73
2023/08/03 11:30:45;;;;;;;9.73;8.73;;;;;;;35.17;35.80;94053.81;5068523;28;20222;-73
2023/08/03 11:33:13;;;;;;;12.02;8.85;;;;;;;35.14;35.76;94046.38;5066384;28;20330;-75